createdAt,value
2022-11-27T00:01:23.267Z,3.70
2022-11-27T00:03:50.319Z,7.13
2022-11-27T00:06:18.944Z,4.15
2022-11-27T00:08:45.914Z,6.53
2022-11-27T00:11:14.804Z,3.33
2022-11-27T00:13:41.708Z,4.50
2022-11-27T00:16:08.651Z,3.42
2022-11-27T00:18:35.741Z,4.80
2022-11-27T00:21:10.584Z,5.25
2022-11-27T00:23:39.568Z,2.08
2022-11-27T00:26:06.500Z,4.15
2022-11-27T00:28:33.675Z,2.85
2022-11-27T00:31:04.944Z,5.15
2022-11-27T00:33:31.830Z,2.20
2022-11-27T00:36:02.857Z,5.82
2022-11-27T00:38:30.484Z,5.50
2022-11-27T00:41:12.473Z,2.72
2022-11-27T00:43:44.500Z,2.25
2022-11-27T00:46:21.658Z,3.05
2022-11-27T00:48:50.690Z,5.20
2022-11-27T00:51:21.849Z,5.78
2022-11-27T00:53:48.592Z,5.75
2022-11-27T00:56:17.996Z,3.83
2022-11-27T00:58:45.015Z,3.35
2022-11-27T01:01:23.087Z,5.60
2022-11-27T01:03:49.956Z,3.83
2022-11-27T01:06:17.116Z,4.63
2022-11-27T01:08:43.881Z,4.40
2022-11-27T01:11:22.580Z,4.10
2022-11-27T01:13:49.299Z,4.47
2022-11-27T01:16:20.757Z,4.38
2022-11-27T01:18:48.570Z,4.97
2022-11-27T01:21:16.890Z,4.63
2022-11-27T01:23:43.733Z,3.72
2022-11-27T01:26:10.788Z,4.30
2022-11-27T01:28:39.761Z,2.90
2022-11-27T01:31:07.925Z,7.53
2022-11-27T01:33:34.740Z,2.03
2022-11-27T01:36:03.224Z,3.13
2022-11-27T01:38:30.231Z,2.53
2022-11-27T01:41:20.056Z,4.03
2022-11-27T01:43:48.199Z,3.63
2022-11-27T01:46:40.594Z,2.58
2022-11-27T01:49:10.360Z,9.77
2022-11-27T01:51:51.262Z,5.63
2022-11-27T01:54:18.626Z,3.00
2022-11-27T01:56:46.320Z,4.53
2022-11-27T01:59:13.043Z,5.72
2022-11-27T02:01:39.849Z,6.15
2022-11-27T02:04:06.590Z,4.90
2022-11-27T02:06:33.281Z,8.90
2022-11-27T02:08:59.973Z,4.55
2022-11-27T02:11:36.339Z,3.95
2022-11-27T02:14:03.050Z,5.13
2022-11-27T02:16:51.053Z,3.53
2022-11-27T02:19:55.547Z,1.77
2022-11-27T02:22:59.300Z,8.57
2022-11-27T02:25:38.006Z,3.92
2022-11-27T02:28:28.961Z,6.07
2022-11-27T02:31:06.275Z,5.10
2022-11-27T02:33:33.149Z,2.45
2022-11-27T02:36:07.325Z,4.45
2022-11-27T02:38:49.643Z,2.95
2022-11-27T02:41:38.843Z,3.78
2022-11-27T02:44:06.403Z,2.78
2022-11-27T02:46:33.115Z,6.07
2022-11-27T02:49:09.482Z,1.27
2022-11-27T02:51:39.625Z,5.82
2022-11-27T02:54:08.127Z,1.48
2022-11-27T02:56:34.849Z,6.07
2022-11-27T02:59:03.234Z,3.53
2022-11-27T03:01:32.481Z,3.83
2022-11-27T03:03:59.861Z,3.15
2022-11-27T03:06:31.487Z,4.55
2022-11-27T03:09:06.744Z,1.92
2022-11-27T03:11:33.459Z,7.93
2022-11-27T03:14:02.198Z,3.60
2022-11-27T03:17:07.655Z,1.77
2022-11-27T03:19:45.822Z,1.83
2022-11-27T03:22:12.634Z,2.28
2022-11-27T03:24:39.689Z,3.33
2022-11-27T03:27:06.864Z,1.55
2022-11-27T03:29:51.464Z,2.80
2022-11-27T03:32:18.241Z,2.60
2022-11-27T03:34:44.952Z,3.35
2022-11-27T03:37:11.596Z,2.10
2022-11-27T03:39:38.291Z,1.20
2022-11-27T03:42:14.352Z,2.97
2022-11-27T03:45:11.362Z,2.50
2022-11-27T03:48:17.415Z,3.55
2022-11-27T03:50:55.924Z,2.78
2022-11-27T03:53:32.488Z,1.45
2022-11-27T03:56:10.237Z,1.42
2022-11-27T03:58:43.509Z,1.25
2022-11-27T04:01:11.956Z,5.50
2022-11-27T04:03:38.734Z,2.20
2022-11-27T04:06:05.753Z,2.47
2022-11-27T04:08:32.485Z,4.18
2022-11-27T04:10:59.147Z,2.30
2022-11-27T04:13:25.983Z,2.05
2022-11-27T04:15:52.756Z,2.70
2022-11-27T04:18:19.445Z,3.25
2022-11-27T04:20:46.214Z,2.35
2022-11-27T04:23:12.930Z,2.88
2022-11-27T04:25:39.623Z,6.28
2022-11-27T04:28:06.332Z,5.07
2022-11-27T04:30:33.639Z,3.00
2022-11-27T04:33:00.317Z,2.47
2022-11-27T04:35:27.026Z,1.23
2022-11-27T04:37:54.323Z,1.85
2022-11-27T04:40:21.028Z,2.65
2022-11-27T04:42:47.857Z,0.90
2022-11-27T04:45:14.652Z,2.97
2022-11-27T04:47:41.391Z,0.70
2022-11-27T04:50:08.577Z,0.35
2022-11-27T04:52:35.256Z,1.95
2022-11-27T04:55:02.248Z,4.28
2022-11-27T04:57:28.953Z,3.90
2022-11-27T04:59:55.765Z,1.95
2022-11-27T05:02:22.490Z,2.53
2022-11-27T05:04:49.265Z,2.55
2022-11-27T05:07:15.995Z,0.70
2022-11-27T05:09:42.823Z,2.83
2022-11-27T05:12:10.476Z,2.70
2022-11-27T05:14:37.461Z,2.17
2022-11-27T05:17:04.718Z,1.30
2022-11-27T05:19:31.773Z,3.50
2022-11-27T05:21:58.579Z,3.17
2022-11-27T05:24:26.651Z,54.15
2022-11-27T05:26:53.942Z,0.63
2022-11-27T05:29:20.673Z,1.25
2022-11-27T05:31:47.573Z,5.78
2022-11-27T05:34:14.809Z,3.05
2022-11-27T05:36:41.631Z,2.92
2022-11-27T05:39:08.516Z,2.22
2022-11-27T05:41:36.112Z,2.03
2022-11-27T05:44:03.056Z,3.90
2022-11-27T05:46:29.886Z,1.38
2022-11-27T05:48:56.652Z,3.53
2022-11-27T05:51:23.429Z,2.67
2022-11-27T05:53:50.149Z,1.00
2022-11-27T05:56:17.771Z,1.27
2022-11-27T05:58:45.633Z,1.27
2022-11-27T06:01:12.927Z,3.67
2022-11-27T06:03:39.667Z,2.13
2022-11-27T06:06:14.874Z,1.08
2022-11-27T06:08:41.948Z,0.63
2022-11-27T06:11:10.185Z,2.60
2022-11-27T06:13:36.997Z,0.65
2022-11-27T06:16:15.496Z,0.93
2022-11-27T06:18:42.525Z,3.33
2022-11-27T06:21:10.382Z,1.13
2022-11-27T06:23:37.275Z,0.70
2022-11-27T06:26:15.140Z,0.45
2022-11-27T06:28:41.958Z,0.77
2022-11-27T06:31:17.773Z,2.60
2022-11-27T06:33:46.117Z,3.10
2022-11-27T06:36:12.846Z,3.55
2022-11-27T06:38:39.558Z,0.75
2022-11-27T06:41:08.024Z,3.92
2022-11-27T06:43:34.942Z,2.33
2022-11-27T06:46:03.141Z,1.38
2022-11-27T06:48:30.473Z,0.63
2022-11-27T06:51:04.933Z,1.52
2022-11-27T06:53:31.944Z,1.38
2022-11-27T06:55:58.649Z,0.45
2022-11-27T06:58:30.641Z,1.17
2022-11-27T07:01:01.988Z,0.30
2022-11-27T07:03:28.781Z,0.98
2022-11-27T07:05:55.529Z,2.58
2022-11-27T07:08:22.460Z,1.67
2022-11-27T07:10:49.299Z,1.20
2022-11-27T07:13:16.002Z,0.60
2022-11-27T07:15:43.090Z,1.98
2022-11-27T07:18:09.951Z,0.93
2022-11-27T07:20:36.727Z,0.43
2022-11-27T07:23:03.501Z,1.05
2022-11-27T07:25:30.195Z,1.73
2022-11-27T07:27:56.891Z,0.60
2022-11-27T07:30:23.853Z,0.60
2022-11-27T07:32:50.597Z,0.38
2022-11-27T07:35:17.593Z,0.70
2022-11-27T07:37:44.288Z,1.08
2022-11-27T07:40:11.171Z,4.15
2022-11-27T07:42:39.054Z,2.70
2022-11-27T07:45:07.943Z,0.70
2022-11-27T07:47:34.619Z,1.20
2022-11-27T07:50:01.536Z,1.00
2022-11-27T07:52:28.220Z,1.13
2022-11-27T07:54:54.938Z,2.45
2022-11-27T07:57:21.717Z,0.90
2022-11-27T07:59:48.475Z,3.65
2022-11-27T08:02:15.230Z,0.90
2022-11-27T08:04:42.254Z,3.80
2022-11-27T08:07:09.263Z,1.17
2022-11-27T08:09:36.024Z,0.50
2022-11-27T08:12:02.690Z,1.02
2022-11-27T08:14:29.433Z,3.22
2022-11-27T08:16:56.365Z,0.40
2022-11-27T08:19:23.180Z,0.50
2022-11-27T08:21:50.019Z,2.83
2022-11-27T08:24:16.809Z,3.22
2022-11-27T08:26:43.474Z,0.52
2022-11-27T08:29:13.391Z,0.93
2022-11-27T08:31:40.239Z,1.15
2022-11-27T08:34:07.057Z,0.85
2022-11-27T08:36:33.942Z,0.98
2022-11-27T08:39:00.646Z,0.65
2022-11-27T08:41:27.352Z,2.00
2022-11-27T08:43:54.056Z,3.67
2022-11-27T08:46:20.836Z,1.30
2022-11-27T08:48:47.671Z,2.72
2022-11-27T08:51:15.322Z,1.92
2022-11-27T08:53:44.088Z,4.80
2022-11-27T08:56:21.775Z,6.15
2022-11-27T08:58:48.750Z,1.63
2022-11-27T09:01:22.619Z,3.35
2022-11-27T09:06:18.230Z,1.60
2022-11-27T09:08:45.092Z,1.35
2022-11-27T09:11:12.719Z,1.80
2022-11-27T09:13:40.297Z,6.07
2022-11-27T09:16:09.087Z,4.00
2022-11-27T09:18:35.859Z,1.33
2022-11-27T09:21:04.616Z,10.60
2022-11-27T09:23:31.477Z,0.85
2022-11-27T09:26:01.936Z,4.47
2022-11-27T09:28:31.614Z,2.78
2022-11-27T09:30:59.746Z,2.03
2022-11-27T09:33:26.821Z,2.38
2022-11-27T09:35:53.723Z,2.83
2022-11-27T09:38:20.456Z,2.72
2022-11-27T09:40:51.465Z,4.47
2022-11-27T09:43:21.090Z,1.65
2022-11-27T09:45:55.219Z,3.35
2022-11-27T09:48:35.970Z,2.72
2022-11-27T09:51:04.002Z,1.52
2022-11-27T09:53:43.863Z,4.63
2022-11-27T09:56:12.400Z,3.22
2022-11-27T09:58:40.553Z,2.17
2022-11-27T10:01:15.385Z,1.63
2022-11-27T10:03:42.756Z,3.45
2022-11-27T10:06:26.171Z,0.98
2022-11-27T10:09:16.850Z,0.87
2022-11-27T10:12:16.459Z,4.30
2022-11-27T10:14:59.910Z,4.55
2022-11-27T10:17:49.161Z,5.60
2022-11-27T10:20:18.717Z,5.20
2022-11-27T10:22:57.699Z,2.13
2022-11-27T10:25:33.479Z,1.00
2022-11-27T10:28:36.498Z,3.22
2022-11-27T10:31:09.657Z,1.98
2022-11-27T10:33:56.311Z,5.07
2022-11-27T10:36:43.518Z,1.63
2022-11-27T10:39:29.157Z,5.78
2022-11-27T10:41:59.752Z,2.15
2022-11-27T10:44:30.659Z,2.45
2022-11-27T10:47:02.874Z,3.10
2022-11-27T10:49:29.795Z,4.30
2022-11-27T10:51:56.628Z,2.88
2022-11-27T10:54:37.407Z,2.50
2022-11-27T10:57:37.690Z,2.15
2022-11-27T11:00:14.993Z,2.08
2022-11-27T11:02:41.852Z,5.05
2022-11-27T11:05:57.245Z,2.45
2022-11-27T11:08:19.578Z,6.45
2022-11-27T11:11:06.248Z,3.55
2022-11-27T11:13:45.905Z,2.30
2022-11-27T11:16:14.910Z,2.80
2022-11-27T11:18:49.029Z,2.65
2022-11-27T11:21:40.399Z,8.35
2022-11-27T11:24:10.519Z,4.75
2022-11-27T11:26:48.203Z,4.82
2022-11-27T11:29:33.217Z,2.40
2022-11-27T11:32:06.908Z,3.55
2022-11-27T11:34:33.784Z,2.80
2022-11-27T11:37:04.296Z,3.75
2022-11-27T11:39:39.294Z,3.55
2022-11-27T11:42:11.022Z,4.45
2022-11-27T11:44:39.126Z,1.77
2022-11-27T11:47:16.554Z,6.57
2022-11-27T11:49:43.313Z,3.67
2022-11-27T11:52:22.062Z,5.63
2022-11-27T11:54:50.217Z,6.72
2022-11-27T11:57:27.584Z,3.40
2022-11-27T11:59:57.323Z,3.63
2022-11-27T12:03:15.758Z,7.50
2022-11-27T12:06:10.343Z,4.10
2022-11-27T12:08:56.465Z,3.47
2022-11-27T12:11:34.213Z,5.18
2022-11-27T12:14:26.899Z,3.13
2022-11-27T12:17:03.509Z,10.77
2022-11-27T12:19:40.228Z,6.00
2022-11-27T12:22:13.134Z,8.60
2022-11-27T12:25:02.857Z,4.73
2022-11-27T12:27:53.140Z,10.75
2022-11-27T12:30:28.272Z,6.93
2022-11-27T12:33:07.288Z,6.72
2022-11-27T12:35:42.119Z,10.35
2022-11-27T12:38:17.699Z,9.02
2022-11-27T12:41:12.221Z,7.95
2022-11-27T12:43:47.832Z,6.03
2022-11-27T12:46:35.216Z,7.45
2022-11-27T12:49:05.718Z,6.68
2022-11-27T12:51:35.110Z,8.90
2022-11-27T12:54:05.432Z,10.15
2022-11-27T12:56:43.503Z,10.45
2022-11-27T12:59:21.255Z,14.45
2022-11-27T13:01:52.724Z,6.65
2022-11-27T13:04:29.496Z,7.30
2022-11-27T13:07:04.955Z,8.27
2022-11-27T13:10:05.474Z,9.20
2022-11-27T13:12:41.778Z,10.02
2022-11-27T13:15:25.222Z,9.90
2022-11-27T13:17:57.712Z,10.13
2022-11-27T13:20:30.230Z,10.93
2022-11-27T13:22:57.075Z,9.20
2022-11-27T13:25:24.067Z,10.95
2022-11-27T13:27:50.860Z,9.38
2022-11-27T13:30:28.599Z,10.50
2022-11-27T13:32:57.447Z,12.20
2022-11-27T13:35:53.521Z,10.45
2022-11-27T13:38:22.580Z,11.50
2022-11-27T13:40:52.257Z,11.05
2022-11-27T13:43:22.148Z,9.35
2022-11-27T13:45:49.016Z,12.77
2022-11-27T13:48:31.069Z,14.52
2022-11-27T13:50:58.210Z,7.60
2022-11-27T13:53:54.408Z,13.52
2022-11-27T13:56:31.274Z,9.63
2022-11-27T13:58:58.040Z,11.57
2022-11-27T14:01:25.236Z,12.15
2022-11-27T14:03:52.135Z,10.25
2022-11-27T14:06:26.649Z,17.75
2022-11-27T14:09:03.414Z,19.45
2022-11-27T14:11:41.384Z,19.30
2022-11-27T14:14:22.158Z,8.30
2022-11-27T14:17:00.020Z,20.80
2022-11-27T14:19:34.504Z,21.65
2022-11-27T14:22:02.193Z,14.38
2022-11-27T14:24:41.493Z,13.63
2022-11-27T14:27:19.172Z,14.35
2022-11-27T14:29:46.265Z,27.10
2022-11-27T14:32:13.973Z,16.85
2022-11-27T14:34:40.995Z,16.38
2022-11-27T14:37:17.292Z,22.98
2022-11-27T14:39:44.106Z,17.27
2022-11-27T14:42:29.029Z,30.63
2022-11-27T14:45:13.564Z,19.23
2022-11-27T14:47:47.500Z,15.73
2022-11-27T14:50:14.299Z,18.00
2022-11-27T14:52:42.426Z,21.90
2022-11-27T14:55:18.577Z,14.77
2022-11-27T14:57:45.999Z,19.73
2022-11-27T15:00:32.466Z,31.25
2022-11-27T15:03:09.379Z,24.48
2022-11-27T15:05:37.427Z,21.25
2022-11-27T15:08:04.369Z,18.08
2022-11-27T15:10:40.881Z,20.35
2022-11-27T15:13:08.395Z,23.17
2022-11-27T15:15:44.287Z,31.13
2022-11-27T15:18:21.993Z,15.60
2022-11-27T15:20:48.726Z,25.67
2022-11-27T15:23:20.807Z,22.88
2022-11-27T15:26:03.797Z,25.77
2022-11-27T15:28:41.315Z,24.10
2022-11-27T15:31:28.679Z,21.00
2022-11-27T15:34:13.968Z,19.02
2022-11-27T15:36:44.735Z,19.90
2022-11-27T15:39:31.755Z,17.73
2022-11-27T15:41:59.969Z,24.15
2022-11-27T15:44:28.444Z,18.88
2022-11-27T15:46:55.698Z,20.63
2022-11-27T15:49:23.461Z,20.65
2022-11-27T15:51:50.316Z,27.85
2022-11-27T15:54:17.044Z,17.77
2022-11-27T15:56:43.840Z,18.23
2022-11-27T15:59:10.571Z,17.10
2022-11-27T16:01:37.937Z,18.48
2022-11-27T16:04:04.817Z,15.27
2022-11-27T16:06:31.578Z,22.67
2022-11-27T16:08:59.352Z,20.23
2022-11-27T16:11:27.449Z,21.90
2022-11-27T16:13:54.152Z,21.85
2022-11-27T16:16:21.539Z,18.05
2022-11-27T16:18:48.463Z,20.83
2022-11-27T16:21:15.704Z,20.65
2022-11-27T16:23:42.500Z,23.75
2022-11-27T16:26:11.259Z,22.08
2022-11-27T16:28:37.988Z,22.77
2022-11-27T16:31:08.222Z,25.63
2022-11-27T16:33:34.937Z,22.92
2022-11-27T16:36:17.825Z,27.83
2022-11-27T16:38:45.052Z,24.73
2022-11-27T16:41:16.564Z,15.30
2022-11-27T16:43:48.334Z,20.10
2022-11-27T16:46:28.476Z,25.83
2022-11-27T16:48:56.225Z,21.77
2022-11-27T16:51:28.541Z,36.70
2022-11-27T16:53:56.392Z,16.45
2022-11-27T16:56:24.405Z,29.48
2022-11-27T16:58:51.355Z,22.23
2022-11-27T17:01:25.829Z,26.83
2022-11-27T17:03:52.808Z,32.80
2022-11-27T17:06:38.275Z,20.35
2022-11-27T17:09:06.423Z,34.88
2022-11-27T17:11:34.071Z,22.85
2022-11-27T17:14:02.540Z,21.17
2022-11-27T17:16:29.413Z,20.35
2022-11-27T17:18:56.203Z,32.03
2022-11-27T17:21:27.733Z,35.35
2022-11-27T17:24:00.034Z,29.45
2022-11-27T17:26:27.663Z,39.40
2022-11-27T17:28:57.654Z,22.45
2022-11-27T17:31:26.696Z,36.08
2022-11-27T17:33:56.968Z,23.45
2022-11-27T17:36:24.519Z,19.85
2022-11-27T17:38:53.549Z,24.17
2022-11-27T17:41:20.441Z,26.73
2022-11-27T17:43:47.278Z,26.05
2022-11-27T17:46:23.396Z,23.63
2022-11-27T17:48:50.825Z,18.45
2022-11-27T17:51:18.156Z,22.75
2022-11-27T17:53:44.864Z,16.33
2022-11-27T17:56:15.653Z,24.95
2022-11-27T17:58:42.425Z,24.52
2022-11-27T18:01:21.017Z,19.55
2022-11-27T18:03:48.000Z,21.02
2022-11-27T18:06:16.690Z,15.18
2022-11-27T18:08:43.845Z,21.73
2022-11-27T18:11:17.844Z,18.50
2022-11-27T18:16:13.834Z,28.80
2022-11-27T18:18:40.815Z,17.60
2022-11-27T18:21:17.899Z,18.58
2022-11-27T18:24:14.498Z,17.63
2022-11-27T18:26:52.671Z,15.70
2022-11-27T18:29:18.980Z,20.92
2022-11-27T18:31:46.784Z,23.92
2022-11-27T18:34:13.514Z,21.60
2022-11-27T18:36:40.253Z,16.25
2022-11-27T18:39:07.014Z,24.27
2022-11-27T18:41:34.702Z,21.75
2022-11-27T18:44:01.424Z,15.00
2022-11-27T18:46:28.295Z,15.52
2022-11-27T18:48:55.112Z,13.02
2022-11-27T18:51:23.251Z,16.55
2022-11-27T18:53:50.736Z,18.23
2022-11-27T18:56:19.574Z,18.33
2022-11-27T18:58:46.752Z,16.15
2022-11-27T19:01:18.846Z,20.23
2022-11-27T19:03:45.764Z,19.77
2022-11-27T19:06:13.286Z,24.45
2022-11-27T19:08:40.207Z,18.52
2022-11-27T19:11:09.401Z,14.02
2022-11-27T19:13:36.363Z,19.02
2022-11-27T19:16:10.935Z,19.60
2022-11-27T19:18:37.786Z,23.65
2022-11-27T19:21:21.210Z,20.02
2022-11-27T19:23:49.001Z,21.37
2022-11-27T19:26:17.550Z,15.63
2022-11-27T19:28:45.361Z,15.65
2022-11-27T19:31:12.857Z,19.45
2022-11-27T19:33:39.765Z,22.35
2022-11-27T19:36:28.253Z,20.42
2022-11-27T19:38:56.308Z,14.48
2022-11-27T19:41:23.202Z,13.15
2022-11-27T19:43:50.029Z,19.92
2022-11-27T19:46:19.800Z,13.10
2022-11-27T19:48:46.692Z,14.02
2022-11-27T19:51:13.558Z,27.20
2022-11-27T19:53:40.501Z,22.83
2022-11-27T19:56:07.938Z,27.60
2022-11-27T19:58:35.026Z,19.65
2022-11-27T20:01:09.495Z,14.30
2022-11-27T20:03:36.389Z,19.08
2022-11-27T20:06:04.978Z,17.58
2022-11-27T20:08:32.031Z,18.73
2022-11-27T20:10:59.259Z,10.82
2022-11-27T20:13:26.251Z,25.00
2022-11-27T20:15:55.744Z,15.73
2022-11-27T20:18:22.705Z,22.52
2022-11-27T20:20:49.557Z,16.58
2022-11-27T20:23:16.560Z,21.98
2022-11-27T20:25:43.403Z,24.15
2022-11-27T20:28:10.226Z,23.95
2022-11-27T20:30:38.872Z,24.15
2022-11-27T20:33:07.692Z,20.77
2022-11-27T20:35:34.939Z,26.00
2022-11-27T20:38:01.736Z,23.83
2022-11-27T20:40:28.640Z,23.92
2022-11-27T20:42:55.428Z,19.63
2022-11-27T20:45:22.154Z,17.88
2022-11-27T20:47:48.915Z,18.25
2022-11-27T20:50:15.614Z,17.48
2022-11-27T20:52:42.953Z,18.63
2022-11-27T20:55:09.750Z,16.58
2022-11-27T20:57:36.561Z,17.42
2022-11-27T21:00:04.407Z,22.27
2022-11-27T21:02:31.256Z,17.02
2022-11-27T21:04:58.273Z,15.90
2022-11-27T21:07:25.110Z,14.40
2022-11-27T21:09:51.941Z,14.10
2022-11-27T21:12:18.725Z,14.68
2022-11-27T21:14:45.504Z,12.15
2022-11-27T21:17:12.230Z,14.63
2022-11-27T21:19:39.077Z,11.57
2022-11-27T21:22:06.115Z,18.25
2022-11-27T21:24:33.037Z,11.30
2022-11-27T21:27:00.046Z,17.27
2022-11-27T21:29:30.820Z,20.85
2022-11-27T21:31:57.628Z,12.45
2022-11-27T21:34:24.612Z,13.95
2022-11-27T21:36:51.521Z,11.38
2022-11-27T21:39:20.974Z,11.95
2022-11-27T21:41:49.051Z,12.02
2022-11-27T21:44:17.786Z,9.95
2022-11-27T21:46:47.531Z,11.00
2022-11-27T21:49:15.045Z,10.43
2022-11-27T21:51:41.826Z,8.27
2022-11-27T21:54:10.502Z,15.25
2022-11-27T21:56:39.328Z,13.95
2022-11-27T21:59:10.775Z,12.95
2022-11-27T22:01:37.577Z,17.75
2022-11-27T22:04:04.355Z,10.65
2022-11-27T22:06:35.582Z,24.33
2022-11-27T22:09:02.392Z,16.23
2022-11-27T22:11:30.735Z,13.48
2022-11-27T22:13:58.743Z,16.38
2022-11-27T22:16:26.441Z,12.07
2022-11-27T22:18:54.077Z,19.63
2022-11-27T22:21:20.850Z,15.23
2022-11-27T22:23:47.922Z,14.60
2022-11-27T22:26:16.371Z,14.27
2022-11-27T22:28:43.416Z,15.98
2022-11-27T22:31:10.497Z,19.48
2022-11-27T22:33:37.813Z,33.08
2022-11-27T22:36:21.792Z,15.88
2022-11-27T22:38:49.845Z,14.15
2022-11-27T22:41:16.928Z,15.10
2022-11-27T22:43:44.653Z,19.88
2022-11-27T22:46:14.174Z,14.88
2022-11-27T22:48:41.707Z,19.05
2022-11-27T22:51:08.856Z,25.13
2022-11-27T22:53:35.942Z,18.50
2022-11-27T22:56:10.360Z,16.90
2022-11-27T22:58:41.330Z,17.95
2022-11-27T23:01:13.738Z,19.63
2022-11-27T23:03:40.605Z,22.23
2022-11-27T23:06:11.916Z,25.95
2022-11-27T23:08:43.388Z,25.38
2022-11-27T23:11:10.815Z,31.10
2022-11-27T23:13:37.611Z,22.73
2022-11-27T23:16:06.099Z,22.83
2022-11-27T23:18:33.433Z,29.73
2022-11-27T23:21:00.145Z,24.52
2022-11-27T23:23:26.871Z,26.13
2022-11-27T23:25:53.555Z,30.42
2022-11-27T23:28:20.385Z,30.63
2022-11-27T23:30:48.486Z,31.63
2022-11-27T23:33:19.314Z,23.55
2022-11-27T23:35:46.040Z,28.67
2022-11-27T23:38:12.874Z,26.42
2022-11-27T23:40:39.669Z,21.98
2022-11-27T23:43:06.373Z,27.67
2022-11-27T23:45:33.142Z,21.70
2022-11-27T23:47:59.907Z,20.55
2022-11-27T23:50:26.738Z,22.35
2022-11-27T23:52:54.180Z,23.63
2022-11-27T23:55:20.854Z,29.75
2022-11-27T23:57:47.648Z,30.55
